createdAt,value
2023-05-21T00:00:33.096Z,23.23
2023-05-21T00:03:00.416Z,23.08
2023-05-21T00:05:27.324Z,19.63
2023-05-21T00:07:54.154Z,20.45
2023-05-21T00:10:21.401Z,22.23
2023-05-21T00:12:48.137Z,21.88
2023-05-21T00:15:15.072Z,22.23
2023-05-21T00:17:42.359Z,20.35
2023-05-21T00:20:09.560Z,22.13
2023-05-21T00:22:36.424Z,28.45
2023-05-21T00:25:03.893Z,24.40
2023-05-21T00:27:30.817Z,22.58
2023-05-21T00:29:57.994Z,28.48
2023-05-21T00:32:26.097Z,23.15
2023-05-21T00:34:54.559Z,21.50
2023-05-21T00:37:23.318Z,23.73
2023-05-21T00:39:51.536Z,23.10
2023-05-21T00:42:19.903Z,20.75
2023-05-21T00:44:46.983Z,24.10
2023-05-21T00:47:15.634Z,26.48
2023-05-21T00:49:42.477Z,23.23
2023-05-21T00:52:10.539Z,22.48
2023-05-21T00:54:37.458Z,22.02
2023-05-21T00:57:06.070Z,21.70
2023-05-21T00:59:33.587Z,24.70
2023-05-21T01:02:03.881Z,20.52
2023-05-21T01:04:33.674Z,20.13
2023-05-21T01:07:00.509Z,21.55
2023-05-21T01:09:28.004Z,23.52
2023-05-21T01:11:55.830Z,25.50
2023-05-21T01:14:24.178Z,24.95
2023-05-21T01:16:51.975Z,28.45
2023-05-21T01:19:23.577Z,26.38
2023-05-21T01:21:53.800Z,27.20
2023-05-21T01:24:20.595Z,24.40
2023-05-21T01:26:48.575Z,22.48
2023-05-21T01:29:15.386Z,26.42
2023-05-21T01:31:51.431Z,21.92
2023-05-21T01:34:24.103Z,22.00
2023-05-21T01:37:01.573Z,23.55
2023-05-21T01:39:35.240Z,25.52
2023-05-21T01:42:06.954Z,29.40
2023-05-21T01:44:36.168Z,26.20
2023-05-21T01:47:04.909Z,32.05
2023-05-21T01:49:33.376Z,30.67
2023-05-21T01:52:00.381Z,26.40
2023-05-21T01:54:29.635Z,26.67
2023-05-21T01:56:58.655Z,23.45
2023-05-21T01:59:25.646Z,26.42
2023-05-21T02:01:52.598Z,24.17
2023-05-21T02:04:19.582Z,23.83
2023-05-21T02:06:46.401Z,24.20
2023-05-21T02:09:13.203Z,24.40
2023-05-21T02:11:40.207Z,24.08
2023-05-21T02:14:07.102Z,29.25
2023-05-21T02:16:34.008Z,29.67
2023-05-21T02:19:00.909Z,27.08
2023-05-21T02:21:27.763Z,25.05
2023-05-21T02:23:54.531Z,28.05
2023-05-21T02:26:21.436Z,27.08
2023-05-21T02:28:49.802Z,31.10
2023-05-21T02:31:19.563Z,27.00
2023-05-21T02:33:47.920Z,30.38
2023-05-21T02:36:16.065Z,32.00
2023-05-21T02:38:45.118Z,34.97
2023-05-21T02:41:15.592Z,30.75
2023-05-21T02:43:43.632Z,25.90
2023-05-21T02:46:10.611Z,27.92
2023-05-21T02:48:39.480Z,31.63
2023-05-21T02:51:06.351Z,29.10
2023-05-21T02:53:33.154Z,26.80
2023-05-21T02:55:59.920Z,28.45
2023-05-21T02:58:26.844Z,29.75
2023-05-21T03:00:53.812Z,30.35
2023-05-21T03:03:20.772Z,29.48
2023-05-21T03:05:47.945Z,29.33
2023-05-21T03:08:14.864Z,28.25
2023-05-21T03:10:41.760Z,42.13
2023-05-21T03:13:09.839Z,30.98
2023-05-21T03:15:36.994Z,28.38
2023-05-21T03:18:04.028Z,32.80
2023-05-21T03:20:30.821Z,29.65
2023-05-21T03:22:59.306Z,31.33
2023-05-21T03:25:26.279Z,30.35
2023-05-21T03:27:53.278Z,30.92
2023-05-21T03:30:20.364Z,30.95
2023-05-21T03:32:47.709Z,30.40
2023-05-21T03:35:14.840Z,31.67
2023-05-21T03:37:41.597Z,30.67
2023-05-21T03:40:08.881Z,34.47
2023-05-21T03:42:36.408Z,30.23
2023-05-21T03:45:03.895Z,31.25
2023-05-21T03:47:30.803Z,32.55
2023-05-21T03:49:57.655Z,31.80
2023-05-21T03:52:26.094Z,33.28
2023-05-21T03:54:53.827Z,31.58
2023-05-21T03:57:23.834Z,35.20
2023-05-21T03:59:50.857Z,32.50
2023-05-21T04:02:17.648Z,35.03
2023-05-21T04:04:44.663Z,31.95
2023-05-21T04:07:11.434Z,32.30
2023-05-21T04:09:38.196Z,30.58
2023-05-21T04:12:05.306Z,32.20
2023-05-21T04:14:32.136Z,34.65
2023-05-21T04:16:58.879Z,33.33
2023-05-21T04:19:25.772Z,33.08
2023-05-21T04:21:52.630Z,32.83
2023-05-21T04:24:19.430Z,37.45
2023-05-21T04:26:46.691Z,32.10
2023-05-21T04:29:14.818Z,35.67
2023-05-21T04:31:42.034Z,31.13
2023-05-21T04:34:10.379Z,36.10
2023-05-21T04:36:37.171Z,31.60
2023-05-21T04:39:05.444Z,33.88
2023-05-21T04:41:33.451Z,32.40
2023-05-21T04:44:01.222Z,35.00
2023-05-21T04:46:29.588Z,35.90
2023-05-21T04:48:58.336Z,32.88
2023-05-21T04:51:27.886Z,32.15
2023-05-21T04:53:56.793Z,37.85
2023-05-21T04:56:34.876Z,30.13
2023-05-21T04:59:05.175Z,33.70
2023-05-21T05:01:33.734Z,30.45
2023-05-21T05:04:03.599Z,33.55
2023-05-21T05:06:33.341Z,31.80
2023-05-21T05:09:00.174Z,29.42
2023-05-21T05:11:26.970Z,29.02
2023-05-21T05:13:53.745Z,31.73
2023-05-21T05:16:20.677Z,28.45
2023-05-21T05:18:47.883Z,28.83
2023-05-21T05:21:14.678Z,36.85
2023-05-21T05:23:41.566Z,28.42
2023-05-21T05:26:08.477Z,31.50
2023-05-21T05:28:35.371Z,29.73
2023-05-21T05:31:02.342Z,30.35
2023-05-21T05:33:29.176Z,27.85
2023-05-21T05:35:55.995Z,29.25
2023-05-21T05:38:22.920Z,27.48
2023-05-21T05:40:51.183Z,28.52
2023-05-21T05:43:21.592Z,28.00
2023-05-21T05:45:50.019Z,37.35
2023-05-21T05:48:16.859Z,31.50
2023-05-21T05:50:44.773Z,31.33
2023-05-21T05:53:15.896Z,26.92
2023-05-21T05:55:44.245Z,26.63
2023-05-21T05:58:11.076Z,25.55
2023-05-21T06:00:40.416Z,29.58
2023-05-21T06:03:07.369Z,29.83
2023-05-21T06:05:35.645Z,27.20
2023-05-21T06:08:02.865Z,26.20
2023-05-21T06:10:29.659Z,26.65
2023-05-21T06:12:56.535Z,26.42
2023-05-21T06:15:23.487Z,25.70
2023-05-21T06:17:52.365Z,23.77
2023-05-21T06:20:21.953Z,26.05
2023-05-21T06:22:49.829Z,25.58
2023-05-21T06:25:16.614Z,25.35
2023-05-21T06:27:44.737Z,29.48
2023-05-21T06:30:11.799Z,26.95
2023-05-21T06:32:41.160Z,25.85
2023-05-21T06:35:08.465Z,28.20
2023-05-21T06:37:42.478Z,30.88
2023-05-21T06:40:11.017Z,24.35
2023-05-21T06:42:37.964Z,24.52
2023-05-21T06:45:09.218Z,24.80
2023-05-21T06:47:39.469Z,21.67
2023-05-21T06:50:06.514Z,25.10
2023-05-21T06:52:33.867Z,23.75
2023-05-21T06:55:02.168Z,21.88
2023-05-21T06:57:29.198Z,21.88
2023-05-21T06:59:56.155Z,19.17
2023-05-21T07:02:24.428Z,23.67
2023-05-21T07:04:51.332Z,24.00
2023-05-21T07:07:18.294Z,20.23
2023-05-21T07:09:45.221Z,31.98
2023-05-21T07:12:12.141Z,20.60
2023-05-21T07:14:40.472Z,20.33
2023-05-21T07:17:09.309Z,23.90
2023-05-21T07:19:38.595Z,19.67
2023-05-21T07:22:07.062Z,20.15
2023-05-21T07:24:36.571Z,23.60
2023-05-21T07:27:24.655Z,20.10
2023-05-21T07:29:54.109Z,23.13
2023-05-21T07:32:21.496Z,19.30
2023-05-21T07:34:49.351Z,20.60
2023-05-21T07:37:16.273Z,18.40
2023-05-21T07:39:43.207Z,20.73
2023-05-21T07:42:10.074Z,19.27
2023-05-21T07:44:37.044Z,24.50
2023-05-21T07:47:04.162Z,16.85
2023-05-21T07:49:31.457Z,18.63
2023-05-21T07:51:58.255Z,19.63
2023-05-21T07:54:25.699Z,17.65
2023-05-21T07:56:52.652Z,18.08
2023-05-21T07:59:20.969Z,30.40
2023-05-21T08:01:49.159Z,18.88
2023-05-21T08:04:17.097Z,19.17
2023-05-21T08:06:45.550Z,16.70
2023-05-21T08:09:15.901Z,20.08
2023-05-21T08:11:44.072Z,20.20
2023-05-21T08:14:14.437Z,23.02
2023-05-21T08:16:46.627Z,19.85
2023-05-21T08:19:16.025Z,19.70
2023-05-21T08:21:44.832Z,19.65
2023-05-21T08:24:16.753Z,23.70
2023-05-21T08:26:47.040Z,21.73
2023-05-21T08:29:18.264Z,17.90
2023-05-21T08:31:45.081Z,15.82
2023-05-21T08:34:12.102Z,14.48
2023-05-21T08:36:39.023Z,15.60
2023-05-21T08:39:05.841Z,14.05
2023-05-21T08:41:35.835Z,17.27
2023-05-21T08:44:03.109Z,16.45
2023-05-21T08:46:33.528Z,15.25
2023-05-21T08:49:02.651Z,18.25
2023-05-21T08:51:30.979Z,17.88
2023-05-21T08:53:59.624Z,17.05
2023-05-21T08:56:27.257Z,19.35
2023-05-21T08:58:57.260Z,13.38
2023-05-21T09:01:26.855Z,13.52
2023-05-21T09:04:04.758Z,13.45
2023-05-21T09:06:36.345Z,18.60
2023-05-21T09:09:19.486Z,17.42
2023-05-21T09:11:47.405Z,12.40
2023-05-21T09:14:14.997Z,17.15
2023-05-21T09:16:42.022Z,12.07
2023-05-21T09:19:08.935Z,17.85
2023-05-21T09:21:35.839Z,16.27
2023-05-21T09:24:03.660Z,14.80
2023-05-21T09:26:31.874Z,11.32
2023-05-21T09:29:00.466Z,13.88
2023-05-21T09:31:33.090Z,19.67
2023-05-21T09:34:01.454Z,21.98
2023-05-21T09:36:31.799Z,15.80
2023-05-21T09:39:00.053Z,11.75
2023-05-21T09:41:37.545Z,13.02
2023-05-21T09:44:05.651Z,13.43
2023-05-21T09:46:39.807Z,29.92
2023-05-21T09:49:25.741Z,10.73
2023-05-21T09:51:56.850Z,12.32
2023-05-21T09:54:24.905Z,13.38
2023-05-21T09:56:52.196Z,11.40
2023-05-21T09:59:21.002Z,12.27
2023-05-21T10:01:53.059Z,15.40
2023-05-21T10:04:26.725Z,16.55
2023-05-21T10:07:15.148Z,17.13
2023-05-21T10:09:48.082Z,11.50
2023-05-21T10:12:18.875Z,13.30
2023-05-21T10:14:54.312Z,17.80
2023-05-21T10:17:22.314Z,39.40
2023-05-21T10:19:51.151Z,14.75
2023-05-21T10:22:20.030Z,11.90
2023-05-21T10:24:47.626Z,10.48
2023-05-21T10:27:17.039Z,15.13
2023-05-21T10:29:45.739Z,12.82
2023-05-21T10:32:17.734Z,12.55
2023-05-21T10:34:48.152Z,20.00
2023-05-21T10:37:24.096Z,17.35
2023-05-21T10:39:54.491Z,12.68
2023-05-21T10:42:47.263Z,8.77
2023-05-21T10:45:23.467Z,12.00
2023-05-21T10:47:54.471Z,20.17
2023-05-21T10:50:36.653Z,10.15
2023-05-21T10:53:25.061Z,10.95
2023-05-21T10:56:24.820Z,13.65
2023-05-21T11:02:15.093Z,25.52
2023-05-21T11:04:44.804Z,11.27
2023-05-21T11:07:13.176Z,11.90
2023-05-21T11:09:39.997Z,14.45
2023-05-21T11:12:07.140Z,10.18
2023-05-21T11:14:39.802Z,18.20
2023-05-21T11:17:13.687Z,12.95
2023-05-21T11:19:45.793Z,22.40
2023-05-21T11:22:27.061Z,14.18
2023-05-21T11:24:55.816Z,23.15
2023-05-21T11:27:42.210Z,21.05
2023-05-21T11:30:19.316Z,12.55
2023-05-21T11:33:14.172Z,20.20
2023-05-21T11:35:58.564Z,13.45
2023-05-21T11:38:29.154Z,7.93
2023-05-21T11:41:01.085Z,14.00
2023-05-21T11:43:27.834Z,14.43
2023-05-21T11:45:55.173Z,16.27
2023-05-21T11:48:27.105Z,12.23
2023-05-21T11:50:54.889Z,12.38
2023-05-21T11:53:21.744Z,16.80
2023-05-21T11:55:48.640Z,11.82
2023-05-21T11:58:15.717Z,10.85
2023-05-21T12:00:42.549Z,13.10
2023-05-21T12:03:13.570Z,12.95
2023-05-21T12:05:50.070Z,8.45
2023-05-21T12:08:23.727Z,9.27
2023-05-21T12:10:59.070Z,10.07
2023-05-21T12:13:26.340Z,16.17
2023-05-21T12:15:54.527Z,12.27
2023-05-21T12:18:21.766Z,9.65
2023-05-21T12:20:48.681Z,12.63
2023-05-21T12:23:25.262Z,9.43
2023-05-21T12:25:52.453Z,15.93
2023-05-21T12:28:23.365Z,10.98
2023-05-21T12:30:51.672Z,9.95
2023-05-21T12:33:19.196Z,8.25
2023-05-21T12:35:47.598Z,10.60
2023-05-21T12:38:15.975Z,16.02
2023-05-21T12:40:44.181Z,15.35
2023-05-21T12:43:14.178Z,14.55
2023-05-21T12:45:51.596Z,8.93
2023-05-21T12:48:19.752Z,7.88
2023-05-21T12:50:46.804Z,26.92
2023-05-21T12:53:17.123Z,11.38
2023-05-21T12:55:48.047Z,10.60
2023-05-21T12:58:16.977Z,22.65
2023-05-21T13:00:44.275Z,9.93
2023-05-21T13:03:14.434Z,14.63
2023-05-21T13:05:41.330Z,7.07
2023-05-21T13:08:08.135Z,14.20
2023-05-21T13:10:35.290Z,15.52
2023-05-21T13:13:02.439Z,6.68
2023-05-21T13:15:29.245Z,11.50
2023-05-21T13:17:57.875Z,8.45
2023-05-21T13:20:24.679Z,8.23
2023-05-21T13:22:52.092Z,19.95
2023-05-21T13:25:21.334Z,23.80
2023-05-21T13:27:51.025Z,7.93
2023-05-21T13:30:18.913Z,21.40
2023-05-21T13:32:47.925Z,19.20
2023-05-21T13:35:15.404Z,9.98
2023-05-21T13:37:46.274Z,17.88
2023-05-21T13:40:16.210Z,8.02
2023-05-21T13:42:47.905Z,12.38
2023-05-21T13:45:28.517Z,23.77
2023-05-21T13:47:57.851Z,9.40
2023-05-21T13:50:25.022Z,12.90
2023-05-21T13:52:51.831Z,16.20
2023-05-21T13:55:18.749Z,12.13
2023-05-21T13:57:45.774Z,17.77
2023-05-21T14:00:13.594Z,9.32
2023-05-21T14:02:42.530Z,11.90
2023-05-21T14:05:10.373Z,15.25
2023-05-21T14:07:38.620Z,10.30
2023-05-21T14:10:07.171Z,24.20
2023-05-21T14:12:35.458Z,10.30
2023-05-21T14:15:03.889Z,15.60
2023-05-21T14:17:32.104Z,9.68
2023-05-21T14:19:59.195Z,24.48
2023-05-21T14:22:25.993Z,8.30
2023-05-21T14:24:52.855Z,8.93
2023-05-21T14:27:19.711Z,10.60
2023-05-21T14:29:46.683Z,14.35
2023-05-21T14:32:13.561Z,8.05
2023-05-21T14:34:40.818Z,13.55
2023-05-21T14:37:07.590Z,7.47
2023-05-21T14:39:34.262Z,6.57
2023-05-21T14:42:03.563Z,9.07
2023-05-21T14:44:30.618Z,16.15
2023-05-21T14:46:57.907Z,9.70
2023-05-21T14:49:24.684Z,6.25
2023-05-21T14:51:58.956Z,14.68
2023-05-21T14:54:25.864Z,19.00
2023-05-21T14:56:55.508Z,15.23
2023-05-21T14:59:22.612Z,19.92
2023-05-21T15:01:49.799Z,7.80
2023-05-21T15:04:16.637Z,13.32
2023-05-21T15:06:43.461Z,13.93
2023-05-21T15:09:13.062Z,11.30
2023-05-21T15:11:39.878Z,10.32
2023-05-21T15:14:06.773Z,8.32
2023-05-21T15:16:33.605Z,10.38
2023-05-21T15:19:02.047Z,6.68
2023-05-21T15:21:28.840Z,11.20
2023-05-21T15:23:55.822Z,26.48
2023-05-21T15:26:23.772Z,8.25
2023-05-21T15:28:50.534Z,10.02
2023-05-21T15:31:19.739Z,7.70
2023-05-21T15:33:46.528Z,8.07
2023-05-21T15:36:13.369Z,10.05
2023-05-21T15:38:40.293Z,10.48
2023-05-21T15:41:07.064Z,6.07
2023-05-21T15:43:33.825Z,6.53
2023-05-21T15:46:00.744Z,12.68
2023-05-21T15:48:27.689Z,16.25
2023-05-21T15:50:54.404Z,8.02
2023-05-21T15:53:21.199Z,10.82
2023-05-21T15:55:48.980Z,8.45
2023-05-21T15:58:17.314Z,16.75
2023-05-21T16:00:46.300Z,12.25
2023-05-21T16:03:15.863Z,5.60
2023-05-21T16:05:43.792Z,15.20
2023-05-21T16:08:12.538Z,15.73
2023-05-21T16:10:39.288Z,8.10
2023-05-21T16:13:06.058Z,15.30
2023-05-21T16:15:32.853Z,11.32
2023-05-21T16:17:59.591Z,12.15
2023-05-21T16:20:26.438Z,7.65
2023-05-21T16:22:53.209Z,7.05
2023-05-21T16:25:21.168Z,9.43
2023-05-21T16:27:49.257Z,6.05
2023-05-21T16:30:17.165Z,8.60
2023-05-21T16:32:45.234Z,9.73
2023-05-21T16:35:12.003Z,11.68
2023-05-21T16:37:39.869Z,5.90
2023-05-21T16:40:08.554Z,7.10
2023-05-21T16:42:37.516Z,10.35
2023-05-21T16:45:05.267Z,21.45
2023-05-21T16:47:34.190Z,5.72
2023-05-21T16:50:00.920Z,8.65
2023-05-21T16:52:27.696Z,24.73
2023-05-21T16:54:54.408Z,47.03
2023-05-21T16:57:21.398Z,13.15
2023-05-21T16:59:48.260Z,11.70
2023-05-21T17:02:16.675Z,13.65
2023-05-21T17:04:43.723Z,13.43
2023-05-21T17:07:12.142Z,10.95
2023-05-21T17:09:41.321Z,15.95
2023-05-21T17:12:12.267Z,9.32
2023-05-21T17:17:24.247Z,7.60
2023-05-21T17:19:51.986Z,23.70
2023-05-21T17:22:20.000Z,23.55
2023-05-21T17:24:46.715Z,16.63
2023-05-21T17:27:14.321Z,13.02
2023-05-21T17:29:41.092Z,14.45
2023-05-21T17:32:08.661Z,6.43
2023-05-21T17:34:35.417Z,9.65
2023-05-21T17:37:02.175Z,8.35
2023-05-21T17:39:28.944Z,8.20
2023-05-21T17:41:56.850Z,12.85
2023-05-21T17:44:23.608Z,19.83
2023-05-21T17:46:50.843Z,7.28
2023-05-21T17:49:19.211Z,8.93
2023-05-21T17:51:47.059Z,10.65
2023-05-21T17:54:13.775Z,24.77
2023-05-21T17:56:40.711Z,9.50
2023-05-21T17:59:08.992Z,5.70
2023-05-21T18:01:37.617Z,10.13
2023-05-21T18:04:05.244Z,14.70
2023-05-21T18:06:31.976Z,6.72
2023-05-21T18:08:59.060Z,10.55
2023-05-21T18:11:25.911Z,21.00
2023-05-21T18:13:53.836Z,10.55
2023-05-21T18:16:20.978Z,8.60
2023-05-21T18:18:49.197Z,17.60
2023-05-21T18:21:18.162Z,10.88
2023-05-21T18:26:26.744Z,11.60
2023-05-21T18:28:54.789Z,7.53
2023-05-21T18:31:24.606Z,9.07
2023-05-21T18:33:55.106Z,11.80
2023-05-21T18:36:26.611Z,13.20
2023-05-21T18:38:54.672Z,18.83
2023-05-21T18:41:21.822Z,12.77
2023-05-21T18:43:48.629Z,12.35
2023-05-21T18:46:15.465Z,12.23
2023-05-21T18:48:42.249Z,11.70
2023-05-21T18:51:08.993Z,13.60
2023-05-21T18:53:35.790Z,7.78
2023-05-21T18:56:02.665Z,6.97
2023-05-21T18:58:29.642Z,6.70
2023-05-21T19:00:56.436Z,12.02
2023-05-21T19:03:23.221Z,11.63
2023-05-21T19:05:51.157Z,13.75
2023-05-21T19:08:18.321Z,7.13
2023-05-21T19:13:13.267Z,8.48
2023-05-21T19:15:40.225Z,12.48
2023-05-21T19:18:07.237Z,16.67
2023-05-21T19:20:34.124Z,9.95
2023-05-21T19:23:00.986Z,13.88
2023-05-21T19:25:27.772Z,8.95
2023-05-21T19:27:54.578Z,8.65
2023-05-21T19:30:21.392Z,15.07
2023-05-21T19:32:49.337Z,8.55
2023-05-21T19:35:16.290Z,9.20
2023-05-21T19:37:43.120Z,6.50
2023-05-21T19:40:10.434Z,7.05
2023-05-21T19:42:38.596Z,10.65
2023-05-21T19:45:05.998Z,6.07
2023-05-21T19:47:32.838Z,14.38
2023-05-21T19:49:59.542Z,11.48
2023-05-21T19:52:26.369Z,8.90
2023-05-21T19:54:53.166Z,9.25
2023-05-21T19:57:21.396Z,10.05
2023-05-21T19:59:48.175Z,17.63
2023-05-21T20:02:16.256Z,9.38
2023-05-21T20:04:43.057Z,9.55
2023-05-21T20:07:11.551Z,13.48
2023-05-21T20:09:38.757Z,12.38
2023-05-21T20:12:09.124Z,10.23
2023-05-21T20:14:35.965Z,5.22
2023-05-21T20:17:02.892Z,6.32
2023-05-21T20:19:29.772Z,13.80
2023-05-21T20:21:58.012Z,16.50
2023-05-21T20:24:24.772Z,6.90
2023-05-21T20:26:52.636Z,7.00
2023-05-21T20:29:19.411Z,9.95
2023-05-21T20:31:46.164Z,6.90
2023-05-21T20:34:13.010Z,11.63
2023-05-21T20:36:39.809Z,8.50
2023-05-21T20:39:06.684Z,17.55
2023-05-21T20:41:33.444Z,12.55
2023-05-21T20:44:00.172Z,11.88
2023-05-21T20:46:28.500Z,8.55
2023-05-21T20:48:55.240Z,10.65
2023-05-21T20:51:26.168Z,10.38
2023-05-21T20:53:54.738Z,12.48
2023-05-21T20:56:40.108Z,11.57
2023-05-21T20:59:11.059Z,9.23
2023-05-21T21:01:39.448Z,6.75
2023-05-21T21:04:06.386Z,7.43
2023-05-21T21:06:33.224Z,14.93
2023-05-21T21:09:00.053Z,10.20
2023-05-21T21:11:26.880Z,9.65
2023-05-21T21:13:53.769Z,13.95
2023-05-21T21:16:20.682Z,14.10
2023-05-21T21:18:47.630Z,8.60
2023-05-21T21:21:14.465Z,8.00
2023-05-21T21:23:41.267Z,7.90
2023-05-21T21:26:08.663Z,16.45
2023-05-21T21:28:36.651Z,15.40
2023-05-21T21:31:05.869Z,9.50
2023-05-21T21:33:34.638Z,5.78
2023-05-21T21:36:01.463Z,8.18
2023-05-21T21:38:28.244Z,10.02
2023-05-21T21:40:55.025Z,7.00
2023-05-21T21:43:22.198Z,5.90
2023-05-21T21:45:48.998Z,7.47
2023-05-21T21:48:16.136Z,7.85
2023-05-21T21:50:42.965Z,13.98
2023-05-21T21:53:09.709Z,6.22
2023-05-21T21:55:36.402Z,6.88
2023-05-21T21:58:03.201Z,6.10
2023-05-21T22:00:31.134Z,16.45
2023-05-21T22:02:59.345Z,14.30
2023-05-21T22:05:26.614Z,9.07
2023-05-21T22:07:54.518Z,12.70
2023-05-21T22:10:22.580Z,6.63
2023-05-21T22:12:49.349Z,6.55
2023-05-21T22:15:21.745Z,7.40
2023-05-21T22:17:48.501Z,7.75
2023-05-21T22:20:15.605Z,5.85
2023-05-21T22:22:42.310Z,6.70
2023-05-21T22:25:09.268Z,6.55
2023-05-21T22:27:36.201Z,8.60
2023-05-21T22:30:04.229Z,13.20
2023-05-21T22:32:31.048Z,5.85
2023-05-21T22:34:57.895Z,6.38
2023-05-21T22:37:24.972Z,12.57
2023-05-21T22:39:52.444Z,12.07
2023-05-21T22:42:20.456Z,9.82
2023-05-21T22:44:47.671Z,7.47
2023-05-21T22:47:17.616Z,6.93
2023-05-21T22:49:44.369Z,18.50
2023-05-21T22:52:14.190Z,10.13
2023-05-21T22:54:50.723Z,5.70
2023-05-21T22:57:18.996Z,14.70
2023-05-21T22:59:46.676Z,7.35
2023-05-21T23:02:16.536Z,6.22
2023-05-21T23:04:46.314Z,5.35
2023-05-21T23:07:13.174Z,7.10
2023-05-21T23:09:40.222Z,6.60
2023-05-21T23:12:08.212Z,17.50
2023-05-21T23:14:34.966Z,8.27
2023-05-21T23:17:02.387Z,6.03
2023-05-21T23:19:29.851Z,7.10
2023-05-21T23:21:56.794Z,8.52
2023-05-21T23:24:23.653Z,6.88
2023-05-21T23:26:52.525Z,5.95
2023-05-21T23:29:19.341Z,4.47
2023-05-21T23:31:47.489Z,6.50
2023-05-21T23:34:14.526Z,7.13
2023-05-21T23:36:41.323Z,10.55
2023-05-21T23:39:08.310Z,8.20
2023-05-21T23:41:35.112Z,6.68
2023-05-21T23:44:01.927Z,17.27
2023-05-21T23:46:29.748Z,6.82
2023-05-21T23:48:57.631Z,8.15
2023-05-21T23:51:25.781Z,5.45
2023-05-21T23:53:52.591Z,9.40
2023-05-21T23:56:19.442Z,5.22
2023-05-21T23:58:46.206Z,7.38
